createdAt,value
2017-11-26T00:01:29.311Z,11.97
2017-11-26T00:03:57.628Z,11.97
2017-11-26T00:06:25.890Z,9.53
2017-11-26T00:08:54.153Z,10.20
2017-11-26T00:11:22.459Z,9.50
2017-11-26T00:13:50.845Z,9.97
2017-11-26T00:16:19.249Z,10.10
2017-11-26T00:18:48.288Z,9.43
2017-11-26T00:21:16.529Z,9.87
2017-11-26T00:23:44.796Z,9.50
2017-11-26T00:26:13.927Z,9.77
2017-11-26T00:28:42.559Z,9.67
2017-11-26T00:31:10.821Z,9.33
2017-11-26T00:33:39.846Z,9.73
2017-11-26T00:36:10.565Z,8.90
2017-11-26T00:38:38.782Z,9.97
2017-11-26T00:41:07.064Z,9.60
2017-11-26T00:43:35.364Z,9.57
2017-11-26T00:46:03.614Z,11.17
2017-11-26T00:48:31.866Z,10.90
2017-11-26T00:51:00.925Z,9.83
2017-11-26T00:53:30.708Z,10.80
2017-11-26T00:55:58.975Z,10.17
2017-11-26T00:58:27.260Z,10.80
2017-11-26T01:00:55.594Z,11.20
2017-11-26T01:03:23.847Z,10.63
2017-11-26T01:05:52.152Z,11.40
2017-11-26T01:08:21.172Z,10.17
2017-11-26T01:10:49.433Z,11.20
2017-11-26T01:13:18.441Z,9.80
2017-11-26T01:15:47.472Z,12.00
2017-11-26T01:18:15.732Z,10.53
2017-11-26T01:20:44.471Z,11.50
2017-11-26T01:23:12.711Z,12.13
2017-11-26T01:25:40.947Z,9.37
2017-11-26T01:28:09.999Z,9.83
2017-11-26T01:30:38.241Z,11.30
2017-11-26T01:33:06.533Z,10.73
2017-11-26T01:35:34.788Z,10.03
2017-11-26T01:38:03.045Z,11.20
2017-11-26T01:40:32.140Z,10.07
2017-11-26T01:43:00.366Z,12.17
2017-11-26T01:45:28.640Z,11.27
2017-11-26T01:47:57.931Z,10.43
2017-11-26T01:50:36.908Z,11.20
2017-11-26T01:53:05.172Z,11.47
2017-11-26T01:55:33.420Z,11.03
2017-11-26T01:58:01.734Z,10.03
2017-11-26T02:00:30.774Z,11.33
2017-11-26T02:02:59.068Z,11.40
2017-11-26T02:05:27.463Z,10.80
2017-11-26T02:07:55.748Z,9.83
2017-11-26T02:10:24.064Z,9.27
2017-11-26T02:12:52.433Z,9.00
2017-11-26T02:15:20.684Z,10.30
2017-11-26T02:17:48.925Z,11.10
2017-11-26T02:20:17.195Z,11.30
2017-11-26T02:22:45.444Z,9.47
2017-11-26T02:25:14.498Z,10.50
2017-11-26T02:27:42.776Z,10.57
2017-11-26T02:30:11.028Z,10.43
2017-11-26T02:32:51.135Z,9.60
2017-11-26T02:38:20.651Z,10.53
2017-11-26T02:40:49.684Z,9.70
2017-11-26T02:43:18.676Z,10.33
2017-11-26T02:45:46.964Z,11.57
2017-11-26T02:48:15.996Z,11.13
2017-11-26T02:50:44.330Z,12.07
2017-11-26T02:53:12.689Z,12.37
2017-11-26T02:55:41.380Z,13.97
2017-11-26T02:58:09.619Z,13.37
2017-11-26T03:00:37.892Z,14.07
2017-11-26T03:03:07.749Z,13.50
2017-11-26T03:05:35.977Z,14.80
2017-11-26T03:08:04.251Z,14.93
2017-11-26T03:10:32.565Z,14.63
2017-11-26T03:13:00.796Z,14.20
2017-11-26T03:15:29.084Z,16.10
2017-11-26T03:17:57.378Z,15.10
2017-11-26T03:20:25.637Z,14.17
2017-11-26T03:22:53.879Z,14.90
2017-11-26T03:25:22.175Z,13.37
2017-11-26T03:27:50.453Z,13.30
2017-11-26T03:30:18.724Z,14.27
2017-11-26T03:32:46.982Z,13.33
2017-11-26T03:35:16.038Z,15.20
2017-11-26T03:37:44.341Z,12.97
2017-11-26T03:40:12.553Z,14.73
2017-11-26T03:42:40.845Z,12.30
2017-11-26T03:45:09.902Z,12.30
2017-11-26T03:47:39.687Z,12.37
2017-11-26T03:50:07.981Z,13.63
2017-11-26T03:52:36.216Z,14.37
2017-11-26T03:55:04.554Z,13.70
2017-11-26T03:57:33.663Z,15.23
2017-11-26T04:00:02.692Z,14.47
2017-11-26T04:02:30.984Z,15.17
2017-11-26T04:04:59.239Z,15.57
2017-11-26T04:07:28.526Z,15.07
2017-11-26T04:09:57.571Z,14.33
2017-11-26T04:12:25.842Z,13.17
2017-11-26T04:14:54.125Z,13.73
2017-11-26T04:17:22.358Z,15.03
2017-11-26T04:19:50.641Z,12.53
2017-11-26T04:22:18.956Z,13.90
2017-11-26T04:24:47.222Z,14.07
2017-11-26T04:27:15.474Z,12.90
2017-11-26T04:29:43.735Z,13.90
2017-11-26T04:32:12.016Z,11.93
2017-11-26T04:34:40.315Z,13.33
2017-11-26T04:37:08.948Z,13.80
2017-11-26T04:39:37.156Z,13.30
2017-11-26T04:42:05.447Z,13.47
2017-11-26T04:44:33.722Z,12.90
2017-11-26T04:47:01.976Z,12.40
2017-11-26T04:49:31.021Z,13.70
2017-11-26T04:51:59.250Z,14.00
2017-11-26T04:54:28.276Z,14.33
2017-11-26T04:56:56.535Z,13.90
2017-11-26T04:59:24.788Z,15.10
2017-11-26T05:01:53.874Z,14.43
2017-11-26T05:04:22.118Z,12.30
2017-11-26T05:06:51.900Z,14.10
2017-11-26T05:09:20.224Z,13.50
2017-11-26T05:11:48.484Z,14.73
2017-11-26T05:14:16.728Z,14.67
2017-11-26T05:16:44.966Z,13.97
2017-11-26T05:19:13.266Z,14.40
2017-11-26T05:21:41.535Z,13.80
2017-11-26T05:24:09.807Z,13.60
2017-11-26T05:26:38.041Z,13.63
2017-11-26T05:29:06.473Z,12.67
2017-11-26T05:31:35.096Z,14.70
2017-11-26T05:34:03.745Z,12.67
2017-11-26T05:36:32.765Z,11.90
2017-11-26T05:39:01.022Z,11.67
2017-11-26T05:41:29.495Z,11.93
2017-11-26T05:43:58.512Z,11.70
2017-11-26T05:46:26.772Z,11.47
2017-11-26T05:48:55.789Z,11.63
2017-11-26T05:51:24.034Z,10.03
2017-11-26T05:53:52.294Z,12.20
2017-11-26T05:56:20.523Z,11.07
2017-11-26T05:58:48.822Z,10.50
2017-11-26T06:01:17.063Z,10.00
2017-11-26T06:03:45.315Z,9.73
2017-11-26T06:06:13.571Z,9.10
2017-11-26T06:08:42.290Z,9.57
2017-11-26T06:11:10.559Z,8.80
2017-11-26T06:13:38.844Z,9.00
2017-11-26T06:16:07.116Z,8.20
2017-11-26T06:18:35.353Z,10.17
2017-11-26T06:21:03.636Z,8.60
2017-11-26T06:23:32.183Z,10.33
2017-11-26T06:26:01.189Z,10.87
2017-11-26T06:28:29.452Z,9.63
2017-11-26T06:30:57.805Z,8.03
2017-11-26T06:33:26.040Z,10.67
2017-11-26T06:35:54.623Z,11.00
2017-11-26T06:38:23.283Z,9.70
2017-11-26T06:40:52.312Z,11.37
2017-11-26T06:43:20.561Z,10.30
2017-11-26T06:45:48.812Z,12.10
2017-11-26T06:48:17.897Z,10.70
2017-11-26T06:50:46.142Z,9.87
2017-11-26T06:53:14.371Z,10.93
2017-11-26T06:55:43.416Z,11.70
2017-11-26T06:58:11.685Z,13.10
2017-11-26T07:00:39.913Z,11.87
2017-11-26T07:03:08.205Z,11.90
2017-11-26T07:05:37.580Z,10.20
2017-11-26T07:08:05.824Z,11.10
2017-11-26T07:10:34.093Z,10.33
2017-11-26T07:13:02.405Z,13.53
2017-11-26T07:15:30.649Z,12.03
2017-11-26T07:17:59.659Z,10.50
2017-11-26T07:20:27.952Z,11.90
2017-11-26T07:22:56.187Z,11.50
2017-11-26T07:25:24.500Z,10.10
2017-11-26T07:27:52.780Z,12.50
2017-11-26T07:30:21.493Z,12.10
2017-11-26T07:32:49.738Z,11.93
2017-11-26T07:35:18.013Z,15.57
2017-11-26T07:37:46.450Z,11.30
2017-11-26T07:40:14.836Z,11.00
2017-11-26T07:42:43.169Z,11.47
2017-11-26T07:45:11.424Z,10.20
2017-11-26T07:47:39.705Z,10.50
2017-11-26T07:50:07.944Z,9.23
2017-11-26T07:52:36.226Z,9.47
2017-11-26T07:55:04.484Z,9.67
2017-11-26T07:57:33.550Z,9.60
2017-11-26T08:00:02.703Z,9.70
2017-11-26T08:02:31.023Z,9.03
2017-11-26T08:04:59.886Z,9.10
2017-11-26T08:07:28.152Z,11.10
2017-11-26T08:09:56.429Z,11.40
2017-11-26T08:12:25.018Z,11.13
2017-11-26T08:14:53.287Z,10.40
2017-11-26T08:17:21.622Z,10.00
2017-11-26T08:19:49.843Z,9.20
2017-11-26T08:22:18.115Z,10.60
2017-11-26T08:24:46.369Z,10.07
2017-11-26T08:27:15.439Z,11.67
2017-11-26T08:29:43.683Z,10.07
2017-11-26T08:32:11.961Z,10.67
2017-11-26T08:34:40.261Z,10.83
2017-11-26T08:37:08.882Z,10.60
2017-11-26T08:39:37.149Z,11.30
2017-11-26T08:42:06.555Z,10.50
2017-11-26T08:44:34.839Z,11.50
2017-11-26T08:47:03.897Z,9.60
2017-11-26T08:49:32.183Z,9.10
2017-11-26T08:52:01.414Z,9.17
2017-11-26T08:54:30.464Z,10.60
2017-11-26T08:56:58.726Z,10.07
2017-11-26T08:59:27.021Z,10.47
2017-11-26T09:01:55.376Z,11.47
2017-11-26T09:04:23.643Z,8.83
2017-11-26T09:10:00.468Z,8.93
2017-11-26T09:12:28.826Z,10.47
2017-11-26T09:14:57.112Z,10.30
2017-11-26T09:17:25.417Z,11.00
2017-11-26T09:19:53.673Z,9.83
2017-11-26T09:22:22.003Z,8.20
2017-11-26T09:24:50.446Z,8.33
2017-11-26T09:27:18.717Z,8.70
2017-11-26T09:29:47.895Z,7.57
2017-11-26T09:32:16.157Z,8.70
2017-11-26T09:34:45.193Z,8.63
2017-11-26T09:37:13.566Z,8.97
2017-11-26T09:39:41.929Z,9.20
2017-11-26T09:42:10.200Z,7.60
2017-11-26T09:44:38.484Z,9.70
2017-11-26T09:47:07.846Z,7.40
2017-11-26T09:49:36.885Z,7.93
2017-11-26T09:52:05.195Z,6.57
2017-11-26T09:54:34.290Z,7.10
2017-11-26T09:57:02.780Z,6.00
2017-11-26T09:59:31.866Z,8.40
2017-11-26T10:02:00.124Z,9.20
2017-11-26T10:04:29.273Z,7.70
2017-11-26T10:06:57.529Z,7.90
2017-11-26T10:09:26.547Z,7.20
2017-11-26T10:11:54.846Z,8.27
2017-11-26T10:14:23.863Z,8.67
2017-11-26T10:16:52.103Z,6.70
2017-11-26T10:19:20.388Z,7.80
2017-11-26T10:21:49.421Z,7.00
2017-11-26T10:24:17.738Z,7.53
2017-11-26T10:26:46.954Z,7.70
2017-11-26T10:29:16.013Z,7.10
2017-11-26T10:31:44.416Z,7.13
2017-11-26T10:34:12.716Z,6.70
2017-11-26T10:36:41.789Z,7.43
2017-11-26T10:39:10.849Z,6.87
2017-11-26T10:41:39.272Z,8.80
2017-11-26T10:44:10.119Z,7.00
2017-11-26T10:46:41.810Z,7.30
2017-11-26T10:49:13.227Z,7.17
2017-11-26T10:51:43.528Z,7.20
2017-11-26T10:54:13.847Z,6.90
2017-11-26T10:56:43.840Z,7.17
2017-11-26T10:59:15.497Z,7.07
2017-11-26T11:01:46.010Z,7.70
2017-11-26T11:04:15.589Z,7.67
2017-11-26T11:06:44.980Z,6.97
2017-11-26T11:09:14.554Z,7.93
2017-11-26T11:11:54.440Z,6.57
2017-11-26T11:14:27.039Z,7.87
2017-11-26T11:16:56.111Z,6.93
2017-11-26T11:19:25.192Z,6.20
2017-11-26T11:21:55.278Z,6.30
2017-11-26T11:24:26.478Z,5.80
2017-11-26T11:26:58.004Z,6.17
2017-11-26T11:29:27.841Z,6.93
2017-11-26T11:31:56.361Z,6.47
2017-11-26T11:34:27.507Z,6.90
2017-11-26T11:36:56.610Z,5.67
2017-11-26T11:39:25.668Z,8.93
2017-11-26T11:41:55.075Z,7.30
2017-11-26T11:44:25.510Z,7.60
2017-11-26T11:46:54.796Z,8.47
2017-11-26T11:49:24.759Z,6.37
2017-11-26T11:51:54.117Z,6.20
2017-11-26T11:54:22.960Z,6.10
2017-11-26T11:56:51.451Z,6.57
2017-11-26T11:59:20.294Z,6.20
2017-11-26T12:01:48.745Z,7.20
2017-11-26T12:04:17.565Z,7.40
2017-11-26T12:06:46.650Z,6.40
2017-11-26T12:09:14.912Z,5.67
2017-11-26T12:11:44.246Z,6.37
2017-11-26T12:14:12.607Z,6.03
2017-11-26T12:16:42.146Z,7.43
2017-11-26T12:19:11.640Z,6.97
2017-11-26T12:21:40.006Z,6.37
2017-11-26T12:24:09.191Z,6.03
2017-11-26T12:26:38.431Z,7.20
2017-11-26T12:29:07.406Z,7.80
2017-11-26T12:31:36.598Z,7.00
2017-11-26T12:34:05.688Z,7.93
2017-11-26T12:36:34.937Z,6.60
2017-11-26T12:39:03.473Z,6.43
2017-11-26T12:41:33.288Z,7.90
2017-11-26T12:44:02.647Z,6.50
2017-11-26T12:46:31.891Z,7.13
2017-11-26T12:49:01.312Z,7.00
2017-11-26T12:51:30.440Z,5.50
2017-11-26T12:53:59.088Z,7.00
2017-11-26T12:56:29.101Z,6.23
2017-11-26T12:58:57.900Z,6.93
2017-11-26T13:01:27.800Z,6.90
2017-11-26T13:03:56.874Z,5.60
2017-11-26T13:06:25.154Z,5.63
2017-11-26T13:08:54.454Z,6.37
2017-11-26T13:11:23.998Z,5.70
2017-11-26T13:13:53.085Z,4.87
2017-11-26T13:16:22.181Z,4.60
2017-11-26T13:18:51.344Z,5.87
2017-11-26T13:21:20.589Z,5.00
2017-11-26T13:23:49.058Z,5.50
2017-11-26T13:26:17.708Z,4.97
2017-11-26T13:28:46.026Z,6.30
2017-11-26T13:31:14.423Z,5.47
2017-11-26T13:33:42.751Z,5.90
2017-11-26T13:36:11.089Z,5.40
2017-11-26T13:38:39.400Z,4.47
2017-11-26T13:41:08.078Z,4.97
2017-11-26T13:43:36.416Z,4.50
2017-11-26T13:46:04.709Z,5.10
2017-11-26T13:48:33.027Z,6.00
2017-11-26T13:51:01.345Z,4.83
2017-11-26T13:53:29.669Z,5.07
2017-11-26T13:55:57.973Z,5.70
2017-11-26T13:58:26.305Z,5.53
2017-11-26T14:00:54.598Z,5.03
2017-11-26T14:03:23.083Z,5.80
2017-11-26T14:05:51.379Z,5.17
2017-11-26T14:08:19.810Z,6.03
2017-11-26T14:10:48.917Z,7.20
2017-11-26T14:13:17.224Z,6.00
2017-11-26T14:15:46.395Z,5.80
2017-11-26T14:18:15.407Z,6.73
2017-11-26T14:20:43.755Z,5.40
2017-11-26T14:23:12.831Z,5.67
2017-11-26T14:25:41.954Z,6.07
2017-11-26T14:28:10.216Z,4.57
2017-11-26T14:30:38.541Z,6.30
2017-11-26T14:33:06.925Z,7.40
2017-11-26T14:35:35.556Z,6.07
2017-11-26T14:38:05.323Z,6.00
2017-11-26T14:40:33.646Z,4.20
2017-11-26T14:43:02.754Z,6.27
2017-11-26T14:45:31.403Z,5.23
2017-11-26T14:47:59.772Z,5.00
2017-11-26T14:50:28.185Z,5.83
2017-11-26T14:52:56.623Z,7.30
2017-11-26T14:55:24.896Z,6.33
2017-11-26T14:57:54.042Z,6.17
2017-11-26T15:00:22.404Z,7.33
2017-11-26T15:02:50.714Z,5.40
2017-11-26T15:05:19.764Z,5.80
2017-11-26T15:07:48.907Z,6.50
2017-11-26T15:10:17.973Z,6.63
2017-11-26T15:12:46.353Z,6.60
2017-11-26T15:15:14.633Z,9.20
2017-11-26T15:17:42.926Z,6.53
2017-11-26T15:20:11.305Z,6.50
2017-11-26T15:22:40.365Z,5.80
2017-11-26T15:25:08.709Z,6.83
2017-11-26T15:27:37.142Z,6.80
2017-11-26T15:30:05.566Z,6.67
2017-11-26T15:32:33.876Z,7.47
2017-11-26T15:35:02.192Z,8.97
2017-11-26T15:37:32.239Z,7.50
2017-11-26T15:40:00.653Z,8.50
2017-11-26T15:42:30.398Z,7.40
2017-11-26T15:44:58.836Z,6.23
2017-11-26T15:47:27.145Z,7.33
2017-11-26T15:49:55.436Z,7.43
2017-11-26T15:52:24.591Z,8.03
2017-11-26T15:54:53.670Z,8.17
2017-11-26T15:57:22.734Z,8.00
2017-11-26T15:59:51.026Z,7.93
2017-11-26T16:02:20.130Z,6.40
2017-11-26T16:04:49.234Z,7.77
2017-11-26T16:07:18.314Z,8.47
2017-11-26T16:09:46.750Z,8.13
2017-11-26T16:12:15.132Z,9.50
2017-11-26T16:14:43.460Z,7.40
2017-11-26T16:17:12.565Z,7.80
2017-11-26T16:19:40.953Z,8.33
2017-11-26T16:22:09.283Z,8.77
2017-11-26T16:24:37.641Z,8.30
2017-11-26T16:27:06.049Z,16.43
2017-11-26T16:29:34.413Z,8.30
2017-11-26T16:32:02.773Z,8.00
2017-11-26T16:34:32.019Z,8.50
2017-11-26T16:37:01.248Z,8.87
2017-11-26T16:39:30.305Z,9.40
2017-11-26T16:41:58.692Z,8.80
2017-11-26T16:44:28.347Z,8.73
2017-11-26T16:46:58.415Z,8.80
2017-11-26T16:49:26.731Z,8.97
2017-11-26T16:51:55.086Z,9.20
2017-11-26T16:54:24.249Z,8.70
2017-11-26T16:56:52.771Z,8.20
2017-11-26T16:59:21.871Z,10.17
2017-11-26T17:01:51.009Z,9.90
2017-11-26T17:04:19.378Z,10.47
2017-11-26T17:06:47.788Z,9.10
2017-11-26T17:09:16.970Z,9.03
2017-11-26T17:11:45.428Z,8.87
2017-11-26T17:14:13.806Z,7.97
2017-11-26T17:16:42.152Z,8.43
2017-11-26T17:19:11.225Z,9.47
2017-11-26T17:21:39.594Z,9.97
2017-11-26T17:24:08.548Z,9.20
2017-11-26T17:26:36.929Z,9.07
2017-11-26T17:29:05.389Z,7.83
2017-11-26T17:31:34.483Z,8.60
2017-11-26T17:34:02.994Z,9.30
2017-11-26T17:36:32.071Z,8.73
2017-11-26T17:39:00.397Z,9.87
2017-11-26T17:41:28.888Z,8.67
2017-11-26T17:43:59.341Z,8.63
2017-11-26T17:46:27.655Z,9.90
2017-11-26T17:48:57.007Z,9.00
2017-11-26T17:51:25.478Z,11.53
2017-11-26T17:53:54.321Z,10.53
2017-11-26T17:56:22.750Z,9.10
2017-11-26T17:58:51.026Z,10.20
2017-11-26T18:01:19.379Z,10.50
2017-11-26T18:03:47.861Z,9.80
2017-11-26T18:06:16.132Z,9.83
2017-11-26T18:08:45.299Z,10.07
2017-11-26T18:11:13.811Z,8.80
2017-11-26T18:13:42.962Z,10.07
2017-11-26T18:16:11.367Z,10.30
2017-11-26T18:18:40.154Z,13.27
2017-11-26T18:21:08.516Z,9.10
2017-11-26T18:23:37.805Z,9.77
2017-11-26T18:26:06.084Z,10.83
2017-11-26T18:28:34.405Z,11.30
2017-11-26T18:31:03.042Z,9.90
2017-11-26T18:33:31.416Z,9.23
2017-11-26T18:36:00.208Z,10.00
2017-11-26T18:38:28.466Z,13.57
2017-11-26T18:40:57.651Z,9.30
2017-11-26T18:43:26.221Z,11.33
2017-11-26T18:45:55.509Z,10.13
2017-11-26T18:48:23.943Z,10.70
2017-11-26T18:50:52.375Z,9.70
2017-11-26T18:53:20.727Z,8.90
2017-11-26T18:55:49.052Z,10.43
2017-11-26T18:58:18.152Z,9.03
2017-11-26T19:00:47.166Z,9.70
2017-11-26T19:03:15.552Z,8.60
2017-11-26T19:05:43.897Z,8.60
2017-11-26T19:08:13.799Z,8.43
2017-11-26T19:10:42.214Z,10.40
2017-11-26T19:13:13.569Z,8.57
2017-11-26T19:15:44.284Z,9.27
2017-11-26T19:18:16.230Z,8.27
2017-11-26T19:20:44.902Z,7.20
2017-11-26T19:23:13.505Z,8.33
2017-11-26T19:25:43.397Z,11.90
2017-11-26T19:28:11.766Z,10.00
2017-11-26T19:30:41.338Z,9.50
2017-11-26T19:33:10.600Z,11.10
2017-11-26T19:35:42.395Z,9.77
2017-11-26T19:38:13.070Z,9.07
2017-11-26T19:40:42.231Z,10.27
2017-11-26T19:43:12.118Z,8.27
2017-11-26T19:45:44.431Z,9.17
2017-11-26T19:48:13.563Z,9.30
2017-11-26T19:50:41.876Z,7.53
2017-11-26T19:53:10.934Z,7.57
2017-11-26T19:55:40.173Z,9.10
2017-11-26T19:58:09.762Z,10.00
2017-11-26T20:00:38.233Z,9.70
2017-11-26T20:03:07.544Z,9.33
2017-11-26T20:05:35.981Z,9.60
2017-11-26T20:08:05.101Z,9.57
2017-11-26T20:10:33.526Z,9.27
2017-11-26T20:13:02.718Z,10.00
2017-11-26T20:15:30.990Z,9.60
2017-11-26T20:18:00.181Z,10.00
2017-11-26T20:20:29.331Z,9.53
2017-11-26T20:22:57.706Z,10.60
2017-11-26T20:25:26.733Z,10.70
2017-11-26T20:27:55.029Z,9.30
2017-11-26T20:30:23.537Z,10.87
2017-11-26T20:32:51.845Z,10.20
2017-11-26T20:35:20.241Z,9.60
2017-11-26T20:37:48.809Z,10.60
2017-11-26T20:40:18.308Z,11.20
2017-11-26T20:42:46.610Z,12.50
2017-11-26T20:45:15.884Z,12.27
2017-11-26T20:47:44.905Z,11.70
2017-11-26T20:50:13.211Z,10.83
2017-11-26T20:52:41.533Z,11.20
2017-11-26T20:55:10.541Z,11.73
2017-11-26T20:57:38.816Z,12.70
2017-11-26T21:00:07.108Z,12.73
2017-11-26T21:02:35.579Z,11.73
2017-11-26T21:05:03.881Z,11.47
2017-11-26T21:07:32.249Z,12.43
2017-11-26T21:10:00.566Z,11.90
2017-11-26T21:12:28.892Z,13.40
2017-11-26T21:14:57.245Z,11.73
2017-11-26T21:17:26.292Z,11.20
2017-11-26T21:19:54.694Z,11.23
2017-11-26T21:22:23.062Z,11.87
2017-11-26T21:24:51.484Z,10.03
2017-11-26T21:27:20.524Z,9.80
2017-11-26T21:29:48.845Z,11.30
2017-11-26T21:32:17.154Z,9.60
2017-11-26T21:34:45.426Z,12.93
2017-11-26T21:37:13.780Z,9.30
2017-11-26T21:39:42.832Z,11.30
2017-11-26T21:42:11.092Z,10.33
2017-11-26T21:44:39.398Z,9.90
2017-11-26T21:47:07.751Z,10.60
2017-11-26T21:49:36.099Z,9.90
2017-11-26T21:52:05.174Z,10.87
2017-11-26T21:54:33.446Z,10.87
2017-11-26T21:57:01.730Z,8.33
2017-11-26T21:59:29.977Z,9.53
2017-11-26T22:01:58.234Z,10.07
2017-11-26T22:04:26.763Z,9.53
2017-11-26T22:06:55.811Z,9.37
2017-11-26T22:09:24.093Z,11.07
2017-11-26T22:11:52.343Z,10.03
2017-11-26T22:14:20.613Z,11.00
2017-11-26T22:16:49.689Z,8.20
2017-11-26T22:19:17.968Z,6.23
2017-11-26T22:21:46.202Z,3.93
2017-11-26T22:24:14.488Z,3.50
2017-11-26T22:26:42.748Z,3.63
2017-11-26T22:29:11.063Z,3.60
2017-11-26T22:31:39.297Z,5.03
2017-11-26T22:34:07.558Z,5.27
2017-11-26T22:36:35.832Z,5.80
2017-11-26T22:39:05.460Z,5.00
2017-11-26T22:41:33.680Z,6.73
2017-11-26T22:44:02.028Z,8.33
2017-11-26T22:46:30.280Z,9.00
2017-11-26T22:48:59.288Z,11.77
2017-11-26T22:51:27.541Z,9.97
2017-11-26T22:53:56.570Z,11.07
2017-11-26T22:56:24.829Z,10.93
2017-11-26T22:58:53.112Z,11.40
2017-11-26T23:01:22.452Z,12.13
2017-11-26T23:03:50.745Z,11.27
2017-11-26T23:06:19.046Z,12.53
2017-11-26T23:08:48.086Z,14.33
2017-11-26T23:11:16.394Z,13.90
2017-11-26T23:13:44.615Z,14.33
2017-11-26T23:16:12.866Z,15.23
2017-11-26T23:18:41.899Z,14.27
2017-11-26T23:21:10.141Z,13.60
2017-11-26T23:23:39.225Z,13.93
2017-11-26T23:26:07.504Z,12.50
2017-11-26T23:28:36.552Z,12.90
2017-11-26T23:31:04.804Z,12.47
2017-11-26T23:33:33.078Z,13.43
2017-11-26T23:36:02.450Z,14.00
2017-11-26T23:38:30.702Z,12.97
2017-11-26T23:40:58.960Z,13.47
2017-11-26T23:43:27.264Z,12.17
2017-11-26T23:45:55.527Z,12.57
2017-11-26T23:48:23.758Z,12.23
2017-11-26T23:50:52.772Z,11.53
2017-11-26T23:53:21.038Z,11.67
2017-11-26T23:55:49.286Z,11.07
2017-11-26T23:58:17.527Z,10.63
